Terminal Aerodrome Forecast
Issued by NWS

Home | Current Version | Previous Version | Text Only | Print | Product List | Glossary On
Versions: 1 2 3 4 5 6 7 8 9 10 11 12 13 14 15 16 17 18 19 20
000
FTUS46 KSEW 011100
TAFPAE
TAF
KPAE 011120Z 0112/0212 12004KT P6SM SCT040 BKN100
     FM011300 14005KT P6SM BKN025 OVC040
     FM011700 18006KT P6SM BKN040
     FM011900 23007KT P6SM SCT050
     FM012100 36006KT P6SM BKN050
     FM020400 03005KT P6SM BKN050
     FM020800 VRB04KT P6SM OVC025
     FM021100 VRB04KT P6SM OVC015=

USA.gov is the U.S. government's official web portal to all federal, state and local government web resources and services.